createdAt,value
2018-07-05T00:00:41.740Z,4.40
2018-07-05T00:03:27.915Z,3.20
2018-07-05T00:06:14.017Z,3.83
2018-07-05T00:09:00.111Z,3.37
2018-07-05T00:11:46.171Z,3.33
2018-07-05T00:14:32.855Z,3.00
2018-07-05T00:17:19.173Z,3.03
2018-07-05T00:20:05.469Z,3.70
2018-07-05T00:22:45.700Z,2.73
2018-07-05T00:25:31.848Z,3.27
2018-07-05T00:28:18.024Z,3.20
2018-07-05T00:31:04.236Z,3.57
2018-07-05T00:33:50.878Z,3.03
2018-07-05T00:36:37.256Z,3.37
2018-07-05T00:39:23.622Z,2.93
2018-07-05T00:42:09.857Z,3.10
2018-07-05T00:44:56.221Z,3.07
2018-07-05T00:47:42.461Z,3.20
2018-07-05T00:50:29.207Z,2.87
2018-07-05T00:53:15.457Z,3.17
2018-07-05T00:56:01.705Z,2.80
2018-07-05T00:58:47.949Z,2.90
2018-07-05T01:01:34.245Z,3.10
2018-07-05T01:04:20.454Z,3.10
2018-07-05T01:07:06.561Z,3.70
2018-07-05T01:09:53.075Z,2.70
2018-07-05T01:12:39.306Z,3.10
2018-07-05T01:15:25.543Z,3.10
2018-07-05T01:18:11.619Z,3.13
2018-07-05T01:20:58.337Z,3.17
2018-07-05T01:23:44.605Z,3.30
2018-07-05T01:26:31.036Z,3.13
2018-07-05T01:29:17.173Z,2.93
2018-07-05T01:32:03.344Z,3.57
2018-07-05T01:34:49.468Z,2.77
2018-07-05T01:37:35.781Z,3.33
2018-07-05T01:40:22.061Z,3.30
2018-07-05T01:43:08.253Z,2.97
2018-07-05T01:45:54.401Z,3.07
2018-07-05T01:48:34.705Z,2.50
2018-07-05T01:51:20.844Z,3.27
2018-07-05T01:54:06.996Z,2.90
2018-07-05T01:56:53.203Z,3.80
2018-07-05T01:59:39.330Z,3.20
2018-07-05T02:02:25.557Z,3.20
2018-07-05T02:05:12.156Z,2.67
2018-07-05T02:07:58.580Z,3.43
2018-07-05T02:10:44.818Z,2.87
2018-07-05T02:13:31.266Z,2.90
2018-07-05T02:16:17.441Z,2.77
2018-07-05T02:19:03.610Z,3.27
2018-07-05T02:21:50.313Z,3.70
2018-07-05T02:24:36.667Z,3.00
2018-07-05T02:27:23.029Z,4.20
2018-07-05T02:30:09.426Z,3.10
2018-07-05T02:32:55.763Z,4.07
2018-07-05T02:35:41.979Z,3.93
2018-07-05T02:38:28.152Z,3.63
2018-07-05T02:41:14.223Z,3.40
2018-07-05T02:44:00.395Z,2.93
2018-07-05T02:46:40.556Z,3.20
2018-07-05T02:49:26.799Z,3.37
2018-07-05T02:52:13.047Z,2.80
2018-07-05T02:54:59.363Z,3.17
2018-07-05T02:57:45.674Z,3.10
2018-07-05T03:00:31.980Z,3.50
2018-07-05T03:03:18.202Z,3.57
2018-07-05T03:06:05.176Z,2.87
2018-07-05T03:08:51.349Z,3.00
2018-07-05T03:11:37.633Z,2.97
2018-07-05T03:14:24.004Z,3.53
2018-07-05T03:17:10.211Z,3.20
2018-07-05T03:19:56.429Z,3.00
2018-07-05T03:22:42.639Z,2.93
2018-07-05T03:25:28.837Z,3.70
2018-07-05T03:28:15.051Z,2.67
2018-07-05T03:31:01.156Z,2.50
2018-07-05T03:33:41.487Z,3.20
2018-07-05T03:36:27.987Z,2.97
2018-07-05T03:39:14.833Z,3.70
2018-07-05T03:42:00.899Z,3.53
2018-07-05T03:44:47.226Z,3.10
2018-07-05T03:47:27.493Z,2.97
2018-07-05T03:50:13.785Z,3.13
2018-07-05T03:52:54.099Z,3.60
2018-07-05T03:55:40.846Z,3.20
2018-07-05T03:58:27.093Z,3.50
2018-07-05T04:01:13.405Z,2.80
2018-07-05T04:03:59.733Z,3.47
2018-07-05T04:06:46.476Z,5.27
2018-07-05T04:09:32.657Z,3.20
2018-07-05T04:12:18.814Z,2.87
2018-07-05T04:15:04.966Z,3.20
2018-07-05T04:17:45.172Z,3.10
2018-07-05T04:20:31.464Z,4.63
2018-07-05T04:23:17.726Z,3.67
2018-07-05T04:26:03.871Z,3.03
2018-07-05T04:28:51.173Z,4.40
2018-07-05T04:31:37.533Z,4.00
2018-07-05T04:34:23.704Z,3.07
2018-07-05T04:37:09.784Z,5.50
2018-07-05T04:39:55.944Z,3.97
2018-07-05T04:42:42.137Z,4.30
2018-07-05T04:45:28.303Z,3.57
2018-07-05T04:48:14.477Z,4.03
2018-07-05T04:51:00.699Z,3.83
2018-07-05T04:53:46.937Z,3.63
2018-07-05T04:56:33.212Z,3.97
2018-07-05T04:59:19.375Z,4.20
2018-07-05T05:02:05.525Z,5.40
2018-07-05T05:04:51.752Z,6.33
2018-07-05T05:07:38.107Z,4.67
2018-07-05T05:10:24.387Z,4.10
2018-07-05T05:13:10.669Z,4.30
2018-07-05T05:15:57.489Z,4.40
2018-07-05T05:18:43.784Z,4.83
2018-07-05T05:21:30.041Z,4.60
2018-07-05T05:24:10.250Z,4.60
2018-07-05T05:26:56.495Z,4.50
2018-07-05T05:29:42.652Z,4.60
2018-07-05T05:32:28.792Z,5.20
2018-07-05T05:35:15.390Z,5.20
2018-07-05T05:38:01.584Z,4.80
2018-07-05T05:40:47.836Z,5.90
2018-07-05T05:43:33.936Z,5.63
2018-07-05T05:46:20.122Z,5.93
2018-07-05T05:49:06.373Z,5.27
2018-07-05T05:51:52.609Z,6.00
2018-07-05T05:54:39.000Z,5.67
2018-07-05T05:57:25.312Z,5.60
2018-07-05T06:00:12.559Z,4.87
2018-07-05T06:02:58.933Z,4.77
2018-07-05T06:05:44.950Z,4.97
2018-07-05T06:08:31.290Z,4.50
2018-07-05T06:11:17.680Z,5.47
2018-07-05T06:14:04.054Z,5.67
2018-07-05T06:16:50.231Z,4.80
2018-07-05T06:19:36.388Z,5.90
2018-07-05T06:22:22.583Z,5.73
2018-07-05T06:25:08.747Z,6.77
2018-07-05T06:27:54.794Z,5.20
2018-07-05T06:30:35.013Z,5.07
2018-07-05T06:33:21.142Z,5.00
2018-07-05T06:36:07.313Z,4.57
2018-07-05T06:38:53.542Z,5.20
2018-07-05T06:41:39.716Z,5.90
2018-07-05T06:44:26.022Z,4.97
2018-07-05T06:47:12.226Z,4.70
2018-07-05T06:49:58.476Z,4.70
2018-07-05T06:52:44.625Z,5.43
2018-07-05T06:55:30.901Z,5.47
2018-07-05T06:58:17.045Z,6.47
2018-07-05T07:01:03.268Z,5.77
2018-07-05T07:03:49.574Z,5.57
2018-07-05T07:06:35.756Z,6.20
2018-07-05T07:09:21.818Z,6.43
2018-07-05T07:12:08.063Z,6.90
2018-07-05T07:14:54.400Z,5.90
2018-07-05T07:17:40.502Z,7.60
2018-07-05T07:20:26.834Z,7.20
2018-07-05T07:23:12.884Z,7.30
2018-07-05T07:25:59.059Z,7.20
2018-07-05T07:28:45.129Z,7.60
2018-07-05T07:31:31.208Z,6.30
2018-07-05T07:34:11.340Z,7.43
2018-07-05T07:36:57.460Z,7.30
2018-07-05T07:39:43.498Z,6.97
2018-07-05T07:42:11.249Z,6.87
2018-07-05T07:44:38.981Z,7.00
2018-07-05T07:47:06.768Z,7.20
2018-07-05T07:49:34.513Z,8.13
2018-07-05T07:52:02.258Z,6.20
2018-07-05T07:54:30.032Z,7.23
2018-07-05T07:56:57.772Z,7.53
2018-07-05T07:59:25.590Z,7.27
2018-07-05T08:01:53.334Z,6.97
2018-07-05T08:04:21.105Z,8.83
2018-07-05T08:06:48.881Z,7.23
2018-07-05T08:09:16.626Z,7.23
2018-07-05T08:11:44.409Z,8.23
2018-07-05T08:14:12.171Z,6.80
2018-07-05T08:16:39.911Z,6.73
2018-07-05T08:19:07.677Z,7.07
2018-07-05T08:21:35.457Z,7.23
2018-07-05T08:24:03.259Z,7.13
2018-07-05T08:26:31.022Z,8.50
2018-07-05T08:28:58.767Z,7.60
2018-07-05T08:31:26.600Z,8.57
2018-07-05T08:33:54.291Z,8.00
2018-07-05T08:36:22.070Z,8.20
2018-07-05T08:38:49.824Z,8.10
2018-07-05T08:41:17.557Z,9.00
2018-07-05T08:43:45.318Z,8.30
2018-07-05T08:46:13.100Z,7.73
2018-07-05T08:48:40.910Z,9.10
2018-07-05T08:51:08.661Z,7.70
2018-07-05T08:53:36.409Z,8.57
2018-07-05T08:56:04.190Z,8.60
2018-07-05T08:58:31.953Z,8.03
2018-07-05T09:00:59.696Z,8.27
2018-07-05T09:03:27.432Z,7.83
2018-07-05T09:05:55.175Z,7.30
2018-07-05T09:08:22.938Z,7.67
2018-07-05T09:10:50.699Z,7.83
2018-07-05T09:13:18.479Z,9.80
2018-07-05T09:15:46.244Z,8.00
2018-07-05T09:18:14.035Z,7.30
2018-07-05T09:20:41.814Z,8.20
2018-07-05T09:23:09.607Z,7.63
2018-07-05T09:25:37.362Z,7.60
2018-07-05T09:28:05.097Z,7.73
2018-07-05T09:30:32.861Z,7.60
2018-07-05T09:33:00.621Z,6.90
2018-07-05T09:35:28.497Z,7.30
2018-07-05T09:37:56.289Z,7.83
2018-07-05T09:40:24.076Z,8.00
2018-07-05T09:42:51.840Z,7.97
2018-07-05T09:45:19.640Z,8.03
2018-07-05T09:47:47.509Z,6.63
2018-07-05T09:50:15.317Z,5.23
2018-07-05T09:52:43.157Z,4.13
2018-07-05T09:55:10.903Z,5.17
2018-07-05T09:57:38.688Z,5.70
2018-07-05T10:00:06.491Z,6.07
2018-07-05T10:02:34.257Z,6.03
2018-07-05T10:05:02.007Z,6.30
2018-07-05T10:07:29.753Z,7.20
2018-07-05T10:09:57.531Z,6.20
2018-07-05T10:12:25.281Z,6.20
2018-07-05T10:14:53.055Z,6.63
2018-07-05T10:17:20.888Z,5.20
2018-07-05T10:19:48.994Z,6.50
2018-07-05T10:22:16.730Z,6.27
2018-07-05T10:24:44.486Z,6.40
2018-07-05T10:27:12.746Z,6.60
2018-07-05T10:29:58.817Z,5.87
2018-07-05T10:32:45.090Z,6.90
2018-07-05T10:35:12.844Z,6.60
2018-07-05T10:37:40.642Z,5.83
2018-07-05T10:40:26.847Z,6.07
2018-07-05T10:43:13.210Z,5.80
2018-07-05T10:45:59.975Z,6.27
2018-07-05T10:48:46.235Z,6.33
2018-07-05T10:51:32.527Z,6.77
2018-07-05T10:54:18.990Z,6.70
2018-07-05T10:56:59.265Z,5.90
2018-07-05T10:59:45.531Z,6.83
2018-07-05T11:02:31.730Z,5.40
2018-07-05T11:05:17.892Z,6.47
2018-07-05T11:08:03.973Z,6.87
2018-07-05T11:10:50.190Z,5.93
2018-07-05T11:13:36.291Z,7.30
2018-07-05T11:16:22.456Z,6.70
2018-07-05T11:19:08.590Z,6.57
2018-07-05T11:21:55.312Z,7.10
2018-07-05T11:24:41.499Z,7.00
2018-07-05T11:27:27.733Z,7.00
2018-07-05T11:30:13.856Z,7.80
2018-07-05T11:33:00.079Z,7.67
2018-07-05T11:35:46.280Z,9.47
2018-07-05T11:38:32.472Z,7.80
2018-07-05T11:41:18.697Z,10.40
2018-07-05T11:44:05.388Z,8.40
2018-07-05T11:46:51.580Z,9.00
2018-07-05T11:49:31.760Z,9.83
2018-07-05T11:52:18.084Z,11.10
2018-07-05T11:55:04.268Z,10.50
2018-07-05T11:57:50.440Z,9.17
2018-07-05T12:00:36.599Z,8.97
2018-07-05T12:03:22.775Z,9.93
2018-07-05T12:06:08.959Z,8.47
2018-07-05T12:08:55.125Z,9.13
2018-07-05T12:11:41.280Z,8.90
2018-07-05T12:14:27.449Z,7.60
2018-07-05T12:17:13.626Z,7.87
2018-07-05T12:19:59.846Z,7.07
2018-07-05T12:22:46.035Z,6.23
2018-07-05T12:25:32.202Z,6.63
2018-07-05T12:28:18.317Z,6.40
2018-07-05T12:31:04.552Z,6.03
2018-07-05T12:33:44.795Z,5.50
2018-07-05T12:36:31.180Z,5.70
2018-07-05T12:39:17.393Z,5.97
2018-07-05T12:42:03.472Z,5.53
2018-07-05T12:44:49.638Z,5.43
2018-07-05T12:47:35.641Z,5.87
2018-07-05T12:50:21.913Z,5.50
2018-07-05T12:53:08.220Z,5.50
2018-07-05T12:55:54.597Z,6.33
2018-07-05T12:58:40.977Z,6.03
2018-07-05T13:01:27.336Z,5.90
2018-07-05T13:04:13.449Z,5.87
2018-07-05T13:06:59.571Z,6.20
2018-07-05T13:09:45.848Z,5.40
2018-07-05T13:12:31.976Z,5.10
2018-07-05T13:15:18.218Z,6.03
2018-07-05T13:18:04.432Z,5.97
2018-07-05T13:20:50.700Z,7.00
2018-07-05T13:23:37.033Z,8.27
2018-07-05T13:26:23.338Z,7.07
2018-07-05T13:29:09.625Z,6.90
2018-07-05T13:31:55.775Z,7.87
2018-07-05T13:34:41.921Z,9.77
2018-07-05T13:37:28.065Z,8.37
2018-07-05T13:40:14.305Z,8.90
2018-07-05T13:43:00.565Z,6.50
2018-07-05T13:45:46.793Z,6.70
2018-07-05T13:48:33.166Z,6.90
2018-07-05T13:51:19.453Z,6.47
2018-07-05T13:54:05.728Z,6.40
2018-07-05T13:56:51.959Z,5.40
2018-07-05T13:59:38.109Z,5.53
2018-07-05T14:02:24.295Z,5.33
2018-07-05T14:05:10.436Z,5.73
2018-07-05T14:07:56.624Z,6.67
2018-07-05T14:10:42.811Z,6.53
2018-07-05T14:13:29.103Z,6.57
2018-07-05T14:16:15.111Z,6.63
2018-07-05T14:19:01.238Z,6.30
2018-07-05T14:21:47.488Z,6.93
2018-07-05T14:24:33.716Z,5.67
2018-07-05T14:27:19.767Z,5.90
2018-07-05T14:30:05.899Z,5.97
2018-07-05T14:32:52.446Z,6.23
2018-07-05T14:35:38.559Z,5.80
2018-07-05T14:38:18.789Z,5.70
2018-07-05T14:41:04.843Z,5.30
2018-07-05T14:43:50.975Z,5.20
2018-07-05T14:46:37.592Z,5.40
2018-07-05T14:49:23.785Z,5.50
2018-07-05T14:52:10.056Z,5.20
2018-07-05T14:54:56.316Z,5.40
2018-07-05T14:57:42.505Z,6.10
2018-07-05T15:00:28.728Z,6.17
2018-07-05T15:03:14.847Z,5.93
2018-07-05T15:06:01.068Z,5.50
2018-07-05T15:08:47.257Z,5.30
2018-07-05T15:11:33.452Z,6.13
2018-07-05T15:14:19.798Z,5.60
2018-07-05T15:17:00.005Z,5.10
2018-07-05T15:19:46.237Z,4.87
2018-07-05T15:22:32.310Z,4.90
2018-07-05T15:25:18.371Z,5.03
2018-07-05T15:28:04.494Z,4.70
2018-07-05T15:30:50.784Z,4.20
2018-07-05T15:33:36.920Z,4.80
2018-07-05T15:36:23.148Z,3.53
2018-07-05T15:39:09.359Z,3.80
2018-07-05T15:41:55.568Z,3.40
2018-07-05T15:44:41.800Z,3.30
2018-07-05T15:47:27.895Z,17.40
2018-07-05T15:50:14.162Z,3.90
2018-07-05T15:53:00.528Z,2.83
2018-07-05T15:55:46.827Z,2.40
2018-07-05T15:58:33.202Z,2.60
2018-07-05T16:01:19.775Z,2.30
2018-07-05T16:04:06.039Z,3.30
2018-07-05T16:06:52.283Z,2.90
2018-07-05T16:09:41.732Z,18.73
2018-07-05T16:12:28.081Z,4.60
2018-07-05T16:15:14.300Z,3.47
2018-07-05T16:18:00.385Z,2.63
2018-07-05T16:20:46.658Z,2.87
2018-07-05T16:23:32.906Z,2.67
2018-07-05T16:26:13.105Z,3.07
2018-07-05T16:28:59.213Z,2.50
2018-07-05T16:31:45.290Z,2.77
2018-07-05T16:34:31.410Z,2.53
2018-07-05T16:37:17.602Z,2.40
2018-07-05T16:40:03.827Z,2.23
2018-07-05T16:42:50.026Z,2.63
2018-07-05T16:45:36.161Z,3.23
2018-07-05T16:48:22.401Z,3.07
2018-07-05T16:51:08.501Z,2.90
2018-07-05T16:53:54.622Z,2.33
2018-07-05T16:56:41.302Z,2.50
2018-07-05T16:59:27.448Z,3.10
2018-07-05T17:02:13.675Z,11.20
2018-07-05T17:04:59.842Z,3.10
2018-07-05T17:07:46.094Z,3.00
2018-07-05T17:10:32.106Z,2.77
2018-07-05T17:13:18.326Z,2.50
2018-07-05T17:15:58.568Z,2.33
2018-07-05T17:18:44.835Z,2.80
2018-07-05T17:21:31.041Z,2.23
2018-07-05T17:24:17.716Z,2.67
2018-07-05T17:27:03.851Z,2.93
2018-07-05T17:29:50.071Z,2.90
2018-07-05T17:32:36.406Z,3.17
2018-07-05T17:35:22.605Z,2.80
2018-07-05T17:38:08.815Z,2.90
2018-07-05T17:40:55.020Z,3.33
2018-07-05T17:43:41.171Z,2.87
2018-07-05T17:46:27.355Z,2.97
2018-07-05T17:49:13.555Z,3.10
2018-07-05T17:51:59.645Z,2.70
2018-07-05T17:54:45.736Z,2.93
2018-07-05T17:57:31.882Z,3.40
2018-07-05T18:00:18.163Z,2.80
2018-07-05T18:03:04.433Z,2.80
2018-07-05T18:05:50.767Z,4.00
2018-07-05T18:08:36.964Z,2.50
2018-07-05T18:11:23.112Z,3.00
2018-07-05T18:14:09.230Z,3.70
2018-07-05T18:16:55.488Z,2.93
2018-07-05T18:19:41.769Z,3.00
2018-07-05T18:22:28.029Z,3.13
2018-07-05T18:25:15.005Z,3.10
2018-07-05T18:28:01.360Z,2.97
2018-07-05T18:30:47.994Z,4.73
2018-07-05T18:33:35.101Z,2.70
2018-07-05T18:36:21.295Z,2.83
2018-07-05T18:39:07.479Z,3.90
2018-07-05T18:41:53.702Z,3.00
2018-07-05T18:44:39.901Z,4.63
2018-07-05T18:47:26.067Z,3.30
2018-07-05T18:50:12.299Z,3.13
2018-07-05T18:52:58.506Z,3.30
2018-07-05T18:55:44.786Z,3.10
2018-07-05T18:58:30.951Z,3.53
2018-07-05T19:01:17.113Z,3.13
2018-07-05T19:04:03.306Z,3.80
2018-07-05T19:06:49.381Z,2.60
2018-07-05T19:09:29.462Z,2.90
2018-07-05T19:12:15.729Z,3.07
2018-07-05T19:15:01.902Z,2.77
2018-07-05T19:17:48.187Z,3.40
2018-07-05T19:20:34.433Z,3.10
2018-07-05T19:23:20.542Z,3.70
2018-07-05T19:26:06.800Z,2.40
2018-07-05T19:28:52.941Z,3.40
2018-07-05T19:31:39.046Z,2.77
2018-07-05T19:34:25.488Z,3.60
2018-07-05T19:37:05.626Z,3.20
2018-07-05T19:39:51.811Z,3.50
2018-07-05T19:42:38.110Z,3.90
2018-07-05T19:45:24.323Z,3.57
2018-07-05T19:48:10.517Z,3.40
2018-07-05T19:50:56.705Z,3.20
2018-07-05T19:53:42.957Z,3.57
2018-07-05T19:56:29.200Z,6.97
2018-07-05T19:59:09.469Z,3.60
2018-07-05T20:01:55.765Z,3.90
2018-07-05T20:04:41.949Z,5.07
2018-07-05T20:07:28.221Z,4.03
2018-07-05T20:10:14.372Z,3.63
2018-07-05T20:13:00.593Z,3.57
2018-07-05T20:15:46.793Z,3.87
2018-07-05T20:18:32.891Z,3.67
2018-07-05T20:21:19.088Z,3.70
2018-07-05T20:23:59.403Z,3.50
2018-07-05T20:26:45.791Z,3.47
2018-07-05T20:29:34.058Z,3.50
2018-07-05T20:32:20.271Z,4.17
2018-07-05T20:35:06.394Z,3.60
2018-07-05T20:37:52.592Z,3.67
2018-07-05T20:40:38.860Z,3.90
2018-07-05T20:43:25.027Z,5.43
2018-07-05T20:46:11.699Z,3.60
2018-07-05T20:48:58.112Z,3.67
2018-07-05T20:51:44.410Z,3.97
2018-07-05T20:54:30.492Z,3.30
2018-07-05T20:57:16.647Z,3.70
2018-07-05T21:00:02.892Z,3.80
2018-07-05T21:02:49.550Z,4.07
2018-07-05T21:05:35.713Z,3.70
2018-07-05T21:08:21.832Z,3.00
2018-07-05T21:11:02.128Z,3.47
2018-07-05T21:13:42.446Z,4.00
2018-07-05T21:16:29.306Z,3.77
2018-07-05T21:19:16.039Z,4.10
2018-07-05T21:22:02.062Z,3.60
2018-07-05T21:24:42.397Z,4.30
2018-07-05T21:27:29.225Z,3.80
2018-07-05T21:30:15.541Z,4.40
2018-07-05T21:33:01.723Z,3.90
2018-07-05T21:35:48.131Z,3.97
2018-07-05T21:38:28.458Z,4.30
2018-07-05T21:41:14.658Z,4.40
2018-07-05T21:44:01.333Z,4.30
2018-07-05T21:46:47.726Z,4.20
2018-07-05T21:49:34.034Z,4.70
2018-07-05T21:52:20.183Z,3.70
2018-07-05T21:55:06.307Z,4.10
2018-07-05T21:57:46.543Z,4.20
2018-07-05T22:00:32.651Z,4.17
2018-07-05T22:03:18.753Z,4.60
2018-07-05T22:05:58.996Z,4.90
2018-07-05T22:08:45.226Z,4.60
2018-07-05T22:11:31.585Z,4.07
2018-07-05T22:14:17.826Z,4.27
2018-07-05T22:17:09.232Z,3.80
2018-07-05T22:20:00.803Z,4.30
2018-07-05T22:22:52.426Z,4.37
2018-07-05T22:25:43.895Z,3.70
2018-07-05T22:28:35.438Z,3.93
2018-07-05T22:31:21.120Z,3.80
2018-07-05T22:34:07.400Z,4.67
2018-07-05T22:36:53.547Z,4.00
2018-07-05T22:39:39.794Z,4.80
2018-07-05T22:42:25.942Z,3.67
2018-07-05T22:45:12.240Z,5.03
2018-07-05T22:47:59.082Z,4.60
2018-07-05T22:50:45.861Z,4.37
2018-07-05T22:53:32.024Z,4.23
2018-07-05T22:56:18.199Z,3.87
2018-07-05T22:59:04.393Z,4.10
2018-07-05T23:01:44.697Z,4.30
2018-07-05T23:04:31.041Z,4.70
2018-07-05T23:07:17.698Z,3.60
2018-07-05T23:10:03.931Z,4.13
2018-07-05T23:12:51.067Z,4.50
2018-07-05T23:15:37.212Z,4.17
2018-07-05T23:18:23.569Z,4.30
2018-07-05T23:21:09.764Z,4.10
2018-07-05T23:23:55.904Z,3.47
2018-07-05T23:26:41.950Z,4.30
2018-07-05T23:29:28.222Z,4.10
2018-07-05T23:32:14.440Z,4.13
2018-07-05T23:35:00.681Z,3.60
2018-07-05T23:37:46.809Z,3.87
2018-07-05T23:40:33.060Z,4.40
2018-07-05T23:43:19.183Z,4.10
2018-07-05T23:46:05.292Z,4.10
2018-07-05T23:48:51.644Z,4.10
2018-07-05T23:51:37.780Z,4.50
2018-07-05T23:54:23.912Z,3.90
2018-07-05T23:57:10.241Z,4.47
2018-07-05T23:59:56.325Z,3.70
